createdAt,value
2019-04-29T00:00:16.984Z,23.40
2019-04-29T00:02:43.167Z,23.21
2019-04-29T00:05:09.624Z,22.77
2019-04-29T00:07:36.226Z,22.72
2019-04-29T00:10:06.695Z,23.17
2019-04-29T00:12:32.867Z,22.57
2019-04-29T00:15:00.954Z,22.05
2019-04-29T00:17:29.156Z,21.97
2019-04-29T00:19:57.214Z,21.62
2019-04-29T00:22:23.499Z,22.16
2019-04-29T00:24:49.846Z,22.05
2019-04-29T00:27:16.044Z,21.34
2019-04-29T00:29:42.241Z,21.51
2019-04-29T00:32:09.494Z,21.78
2019-04-29T00:34:35.666Z,20.98
2019-04-29T00:37:09.456Z,21.27
2019-04-29T00:39:54.089Z,21.56
2019-04-29T00:42:22.197Z,21.48
2019-04-29T00:44:48.547Z,21.99
2019-04-29T00:47:14.820Z,22.39
2019-04-29T00:49:40.999Z,22.36
2019-04-29T00:52:07.167Z,22.33
2019-04-29T00:54:37.884Z,22.62
2019-04-29T00:57:04.193Z,22.59
2019-04-29T00:59:30.361Z,22.48
2019-04-29T01:01:56.634Z,22.38
2019-04-29T01:04:22.819Z,22.38
2019-04-29T01:06:48.971Z,22.64
2019-04-29T01:09:17.145Z,22.67
2019-04-29T01:11:43.397Z,22.71
2019-04-29T01:14:09.564Z,22.76
2019-04-29T01:16:35.738Z,22.74
2019-04-29T01:19:03.900Z,22.79
2019-04-29T01:21:30.002Z,22.68
2019-04-29T01:23:56.169Z,22.44
2019-04-29T01:26:39.090Z,22.32
2019-04-29T01:29:07.143Z,22.04
2019-04-29T01:31:33.403Z,22.42
2019-04-29T01:34:01.518Z,22.52
2019-04-29T01:36:29.564Z,22.44
2019-04-29T01:38:57.645Z,22.42
2019-04-29T01:41:40.858Z,22.34
2019-04-29T01:44:08.720Z,22.34
2019-04-29T01:46:34.973Z,22.16
2019-04-29T01:49:02.383Z,22.03
2019-04-29T01:51:28.559Z,22.33
2019-04-29T01:53:54.813Z,22.51
2019-04-29T01:56:21.027Z,22.82
2019-04-29T01:58:47.185Z,22.84
2019-04-29T02:01:13.449Z,22.62
2019-04-29T02:03:39.663Z,22.07
2019-04-29T02:06:05.814Z,21.77
2019-04-29T02:08:32.094Z,22.10
2019-04-29T02:10:58.424Z,22.06
2019-04-29T02:13:24.592Z,22.13
2019-04-29T02:15:50.766Z,22.27
2019-04-29T02:18:17.055Z,22.08
2019-04-29T02:20:43.217Z,22.14
2019-04-29T02:23:11.294Z,22.29
2019-04-29T02:25:45.426Z,22.37
2019-04-29T02:28:11.580Z,22.45
2019-04-29T02:30:44.480Z,22.22
2019-04-29T02:33:10.671Z,21.55
2019-04-29T02:35:36.823Z,22.16
2019-04-29T02:38:04.900Z,22.25
2019-04-29T02:40:33.016Z,22.26
2019-04-29T02:43:01.166Z,22.44
2019-04-29T02:45:29.227Z,22.46
2019-04-29T02:47:55.451Z,22.57
2019-04-29T02:50:21.724Z,21.89
2019-04-29T02:52:47.873Z,21.67
2019-04-29T02:55:16.080Z,21.66
2019-04-29T02:57:44.145Z,21.77
2019-04-29T03:00:18.059Z,21.84
2019-04-29T03:02:46.168Z,21.67
2019-04-29T03:05:14.236Z,21.75
2019-04-29T03:07:40.436Z,21.68
2019-04-29T03:10:06.991Z,21.56
2019-04-29T03:12:33.863Z,21.68
2019-04-29T03:15:00.067Z,21.75
2019-04-29T03:17:27.728Z,21.83
2019-04-29T03:20:07.699Z,21.85
2019-04-29T03:22:34.604Z,22.05
2019-04-29T03:25:00.773Z,22.12
2019-04-29T03:27:26.983Z,21.86
2019-04-29T03:29:53.144Z,21.82
2019-04-29T03:32:19.324Z,21.95
2019-04-29T03:34:45.517Z,21.81
2019-04-29T03:37:11.681Z,21.94
2019-04-29T03:39:37.845Z,22.09
2019-04-29T03:42:07.204Z,21.89
2019-04-29T03:44:32.121Z,21.99
2019-04-29T03:46:58.295Z,22.28
2019-04-29T03:49:24.506Z,22.23
2019-04-29T03:51:50.678Z,22.25
2019-04-29T03:54:16.876Z,22.45
2019-04-29T03:56:44.262Z,22.51
2019-04-29T03:59:10.517Z,22.69
2019-04-29T04:01:38.615Z,22.76
2019-04-29T04:04:06.770Z,23.09
2019-04-29T04:06:40.388Z,22.86
2019-04-29T04:09:20.118Z,22.67
2019-04-29T04:11:46.283Z,22.92
2019-04-29T04:14:12.446Z,23.42
2019-04-29T04:16:57.107Z,23.56
2019-04-29T04:19:24.741Z,23.81
2019-04-29T04:21:50.891Z,24.11
2019-04-29T04:24:17.081Z,24.44
2019-04-29T04:26:43.284Z,24.45
2019-04-29T04:29:09.450Z,24.47
2019-04-29T04:31:35.635Z,24.70
2019-04-29T04:34:01.814Z,24.59
2019-04-29T04:36:27.962Z,24.69
2019-04-29T04:38:54.166Z,24.62
2019-04-29T04:41:20.343Z,25.00
2019-04-29T04:43:46.487Z,25.33
2019-04-29T04:46:12.803Z,25.47
2019-04-29T04:48:38.979Z,25.62
2019-04-29T04:51:05.136Z,25.85
2019-04-29T04:53:31.354Z,26.08
2019-04-29T04:55:59.309Z,26.07
2019-04-29T04:58:25.466Z,26.41
2019-04-29T05:00:51.779Z,26.82
2019-04-29T05:03:17.956Z,27.40
2019-04-29T05:05:44.119Z,27.67
2019-04-29T05:08:10.317Z,27.94
2019-04-29T05:10:36.489Z,27.85
2019-04-29T05:13:02.644Z,27.26
2019-04-29T05:15:28.867Z,26.84
2019-04-29T05:17:55.052Z,25.85
2019-04-29T05:20:21.200Z,26.01
2019-04-29T05:22:59.023Z,25.88
2019-04-29T05:25:26.414Z,25.86
2019-04-29T05:27:52.592Z,26.44
2019-04-29T05:30:18.790Z,26.20
2019-04-29T05:32:44.989Z,25.49
2019-04-29T05:35:13.013Z,26.01
2019-04-29T05:37:46.658Z,26.06
2019-04-29T05:40:14.739Z,24.93
2019-04-29T05:42:40.909Z,25.07
2019-04-29T05:45:18.120Z,26.22
2019-04-29T05:47:52.258Z,26.72
2019-04-29T05:50:27.781Z,24.67
2019-04-29T05:52:58.360Z,24.26
2019-04-29T05:55:24.538Z,24.10
2019-04-29T05:57:50.742Z,23.78
2019-04-29T06:00:18.887Z,24.14
2019-04-29T06:02:46.011Z,24.19
2019-04-29T06:05:12.197Z,24.47
2019-04-29T06:07:38.352Z,25.20
2019-04-29T06:10:05.436Z,26.23
2019-04-29T06:12:31.626Z,26.99
2019-04-29T06:14:57.825Z,28.08
2019-04-29T06:17:24.004Z,28.30
2019-04-29T06:19:50.295Z,28.54
2019-04-29T06:22:16.455Z,28.74
2019-04-29T06:24:42.751Z,28.31
2019-04-29T06:27:08.960Z,29.12
2019-04-29T06:29:35.123Z,28.62
2019-04-29T06:32:01.306Z,28.90
2019-04-29T06:34:27.900Z,28.84
2019-04-29T06:36:54.065Z,28.05
2019-04-29T06:39:20.250Z,28.80
2019-04-29T06:41:46.977Z,29.32
2019-04-29T06:44:16.663Z,29.06
2019-04-29T06:46:41.363Z,29.06
2019-04-29T06:49:10.309Z,28.95
2019-04-29T06:51:35.637Z,29.94
2019-04-29T06:54:01.807Z,30.52
2019-04-29T06:56:28.031Z,31.21
2019-04-29T06:58:54.180Z,30.21
2019-04-29T07:01:20.340Z,29.79
2019-04-29T07:03:46.556Z,30.55
2019-04-29T07:06:12.735Z,30.86
2019-04-29T07:08:38.896Z,29.94
2019-04-29T07:11:05.181Z,30.57
2019-04-29T07:13:31.351Z,30.80
2019-04-29T07:15:57.603Z,31.26
2019-04-29T07:18:23.828Z,31.33
2019-04-29T07:20:49.988Z,31.56
2019-04-29T07:23:16.266Z,31.68
2019-04-29T07:25:42.471Z,32.37
2019-04-29T07:28:08.624Z,32.57
2019-04-29T07:30:39.255Z,32.20
2019-04-29T07:33:05.548Z,31.91
2019-04-29T07:35:31.270Z,33.28
2019-04-29T07:37:57.457Z,33.19
2019-04-29T07:40:23.664Z,33.62
2019-04-29T07:42:49.907Z,34.23
2019-04-29T07:45:18.183Z,34.41
2019-04-29T07:47:56.355Z,34.35
2019-04-29T07:50:14.614Z,32.52
2019-04-29T07:52:40.936Z,30.67
2019-04-29T07:55:07.952Z,30.65
2019-04-29T07:57:34.107Z,30.80
2019-04-29T08:00:00.266Z,31.78
2019-04-29T08:02:26.590Z,31.57
2019-04-29T08:04:52.868Z,33.17
2019-04-29T08:07:19.120Z,33.19
2019-04-29T08:09:46.339Z,33.12
2019-04-29T08:12:12.900Z,31.80
2019-04-29T08:14:39.168Z,31.26
2019-04-29T08:17:05.495Z,29.85
2019-04-29T08:19:31.869Z,30.13
2019-04-29T08:21:58.036Z,29.37
2019-04-29T08:24:24.247Z,28.55
2019-04-29T08:26:50.428Z,30.62
2019-04-29T08:29:16.586Z,29.86
2019-04-29T08:31:42.795Z,29.61
2019-04-29T08:34:08.972Z,30.10
2019-04-29T08:36:35.228Z,29.31
2019-04-29T08:39:08.214Z,29.06
2019-04-29T08:41:31.827Z,29.74
2019-04-29T08:44:16.446Z,29.63
2019-04-29T08:46:38.878Z,29.09
2019-04-29T08:49:06.156Z,29.60
2019-04-29T08:51:33.271Z,28.50
2019-04-29T08:53:59.424Z,29.14
2019-04-29T08:56:25.718Z,29.10
2019-04-29T08:58:51.899Z,30.04
2019-04-29T09:01:18.061Z,29.36
2019-04-29T09:03:44.337Z,30.55
2019-04-29T09:06:10.656Z,32.00
2019-04-29T09:08:36.840Z,29.47
2019-04-29T09:11:03.215Z,30.31
2019-04-29T09:13:29.442Z,30.58
2019-04-29T09:15:55.595Z,32.54
2019-04-29T09:18:21.750Z,33.43
2019-04-29T09:20:47.977Z,34.92
2019-04-29T09:23:16.059Z,33.39
2019-04-29T09:26:02.721Z,33.34
2019-04-29T09:28:29.885Z,32.82
2019-04-29T09:30:56.323Z,31.43
2019-04-29T09:33:22.762Z,31.24
2019-04-29T09:35:48.942Z,31.65
2019-04-29T09:38:15.133Z,32.55
2019-04-29T09:40:59.624Z,31.89
2019-04-29T09:43:34.035Z,32.53
2019-04-29T09:46:02.155Z,32.78
2019-04-29T09:48:28.319Z,34.16
2019-04-29T09:50:54.503Z,34.66
2019-04-29T09:53:20.811Z,33.94
2019-04-29T09:55:47.072Z,34.69
2019-04-29T09:58:13.256Z,33.14
2019-04-29T10:03:30.240Z,34.21
2019-04-29T10:05:58.335Z,35.04
2019-04-29T10:08:24.519Z,35.04
2019-04-29T10:10:50.667Z,35.36
2019-04-29T10:13:16.861Z,34.12
2019-04-29T10:16:02.066Z,32.00
2019-04-29T10:18:46.650Z,33.65
2019-04-29T10:21:16.529Z,33.31
2019-04-29T10:23:42.865Z,32.27
2019-04-29T10:26:09.177Z,33.17
2019-04-29T10:28:37.240Z,34.14
2019-04-29T10:31:04.218Z,34.47
2019-04-29T10:33:30.423Z,35.51
2019-04-29T10:35:56.679Z,35.12
2019-04-29T10:38:22.857Z,33.89
2019-04-29T10:43:43.828Z,31.67
2019-04-29T10:46:20.956Z,31.45
2019-04-29T10:48:52.254Z,32.67
2019-04-29T10:51:18.710Z,34.08
2019-04-29T10:53:46.612Z,34.89
2019-04-29T10:56:13.799Z,34.34
2019-04-29T10:58:39.956Z,34.33
2019-04-29T11:01:42.220Z,34.40
2019-04-29T11:04:08.858Z,36.00
2019-04-29T11:06:35.765Z,34.16
2019-04-29T11:11:44.204Z,34.47
2019-04-29T11:14:10.531Z,34.93
2019-04-29T11:16:46.066Z,35.34
2019-04-29T11:19:05.780Z,35.89
2019-04-29T11:21:32.493Z,36.12
2019-04-29T11:24:12.712Z,35.57
2019-04-29T11:26:49.587Z,35.20
2019-04-29T11:29:15.916Z,34.71
2019-04-29T11:31:42.173Z,35.25
2019-04-29T11:34:17.972Z,34.73
2019-04-29T11:36:44.278Z,35.88
2019-04-29T11:39:15.541Z,35.34
2019-04-29T11:41:41.802Z,36.20
2019-04-29T11:44:08.026Z,36.95
2019-04-29T11:46:34.306Z,37.50
2019-04-29T11:49:02.373Z,35.94
2019-04-29T11:51:54.213Z,36.18
2019-04-29T11:54:08.138Z,36.15
2019-04-29T11:56:35.865Z,36.25
2019-04-29T11:59:07.703Z,36.50
2019-04-29T12:01:53.475Z,37.19
2019-04-29T12:04:28.633Z,37.18
2019-04-29T12:06:56.254Z,37.03
2019-04-29T12:09:25.488Z,36.85
2019-04-29T12:11:51.743Z,37.61
2019-04-29T12:17:28.249Z,37.54
2019-04-29T12:20:02.375Z,37.44
2019-04-29T12:22:30.997Z,35.72
2019-04-29T12:24:57.514Z,35.72
2019-04-29T12:27:23.690Z,36.34
2019-04-29T12:29:54.437Z,36.61
2019-04-29T12:35:16.778Z,37.38
2019-04-29T12:38:05.896Z,37.20
2019-04-29T12:40:33.724Z,36.72
2019-04-29T12:43:04.573Z,36.72
2019-04-29T12:45:32.661Z,36.56
2019-04-29T12:47:58.933Z,37.29
2019-04-29T12:50:25.223Z,37.20
2019-04-29T12:52:51.424Z,35.82
2019-04-29T12:58:11.210Z,35.51
2019-04-29T13:00:47.493Z,36.45
2019-04-29T13:03:08.345Z,38.07
2019-04-29T13:05:42.266Z,35.51
2019-04-29T13:08:16.388Z,35.80
2019-04-29T13:10:44.477Z,37.41
2019-04-29T13:13:10.756Z,37.21
2019-04-29T13:15:56.104Z,38.72
2019-04-29T13:18:29.712Z,38.43
2019-04-29T13:21:09.203Z,37.23
2019-04-29T13:23:34.828Z,36.95
2019-04-29T13:25:56.119Z,36.95
2019-04-29T13:28:29.887Z,36.80
2019-04-29T13:30:51.545Z,37.37
2019-04-29T13:33:18.644Z,37.37
2019-04-29T13:35:48.465Z,37.60
2019-04-29T13:38:14.839Z,38.21
2019-04-29T13:40:42.937Z,37.98
2019-04-29T13:43:09.102Z,38.30
2019-04-29T13:45:37.209Z,39.41
2019-04-29T13:53:46.203Z,37.50
2019-04-29T13:56:32.210Z,37.59
2019-04-29T13:58:40.610Z,37.13
2019-04-29T14:01:22.057Z,36.85
2019-04-29T14:03:56.354Z,38.08
2019-04-29T14:06:22.624Z,36.98
2019-04-29T14:08:48.792Z,36.67
2019-04-29T14:11:15.128Z,35.31
2019-04-29T14:13:43.253Z,36.34
2019-04-29T14:16:12.035Z,36.34
2019-04-29T14:18:37.571Z,37.23
2019-04-29T14:21:03.842Z,37.67
2019-04-29T14:23:30.015Z,37.67
2019-04-29T14:25:56.290Z,37.91
2019-04-29T14:28:22.538Z,38.20
2019-04-29T14:30:49.227Z,37.47
2019-04-29T14:33:19.174Z,37.99
2019-04-29T14:35:50.117Z,38.08
2019-04-29T14:38:18.104Z,35.86
2019-04-29T14:40:44.309Z,35.86
2019-04-29T14:43:31.630Z,34.24
2019-04-29T14:45:58.832Z,35.02
2019-04-29T14:48:26.998Z,36.31
2019-04-29T14:50:56.111Z,35.72
2019-04-29T14:53:26.208Z,35.64
2019-04-29T14:55:52.365Z,35.94
2019-04-29T14:58:18.547Z,36.03
2019-04-29T15:03:29.230Z,35.23
2019-04-29T15:05:55.558Z,36.10
2019-04-29T15:08:21.752Z,36.29
2019-04-29T15:10:49.860Z,36.59
2019-04-29T15:13:21.388Z,36.72
2019-04-29T15:16:04.786Z,36.62
2019-04-29T15:21:32.022Z,34.86
2019-04-29T15:23:52.632Z,33.66
2019-04-29T15:26:20.435Z,35.26
2019-04-29T15:28:52.471Z,35.19
2019-04-29T15:31:22.266Z,34.25
2019-04-29T15:33:49.085Z,34.39
2019-04-29T15:36:15.287Z,34.28
2019-04-29T15:38:41.581Z,33.89
2019-04-29T15:41:07.868Z,32.92
2019-04-29T15:43:46.501Z,32.84
2019-04-29T15:46:02.164Z,33.18
2019-04-29T15:48:28.312Z,33.04
2019-04-29T15:50:54.469Z,33.09
2019-04-29T15:53:20.685Z,33.52
2019-04-29T15:55:46.837Z,32.83
2019-04-29T15:58:13.021Z,33.11
2019-04-29T16:00:40.429Z,32.83
2019-04-29T16:03:07.204Z,32.63
2019-04-29T16:05:56.142Z,33.28
2019-04-29T16:08:10.816Z,32.76
2019-04-29T16:10:57.852Z,31.86
2019-04-29T16:13:27.764Z,31.41
2019-04-29T16:15:51.698Z,31.17
2019-04-29T16:18:17.894Z,31.66
2019-04-29T16:20:44.058Z,31.55
2019-04-29T16:23:10.275Z,31.77
2019-04-29T16:25:40.523Z,31.84
2019-04-29T16:28:04.699Z,32.16
2019-04-29T16:30:32.008Z,32.41
2019-04-29T16:33:01.140Z,32.31
2019-04-29T16:35:34.481Z,32.40
2019-04-29T16:37:55.385Z,31.94
2019-04-29T16:40:22.787Z,31.57
2019-04-29T16:42:52.709Z,31.94
2019-04-29T16:45:20.867Z,31.87
2019-04-29T16:47:48.657Z,31.63
2019-04-29T16:50:14.955Z,31.67
2019-04-29T16:52:44.551Z,30.90
2019-04-29T16:55:09.551Z,31.03
2019-04-29T16:57:35.731Z,30.98
2019-04-29T17:02:33.700Z,31.35
2019-04-29T17:05:02.749Z,31.02
2019-04-29T17:07:29.232Z,30.89
2019-04-29T17:12:40.540Z,30.46
2019-04-29T17:15:23.642Z,30.66
2019-04-29T17:17:35.081Z,30.60
2019-04-29T17:20:01.963Z,30.65
2019-04-29T17:22:28.143Z,30.34
2019-04-29T17:24:54.300Z,30.00
2019-04-29T17:27:22.375Z,29.92
2019-04-29T17:30:03.487Z,29.83
2019-04-29T17:32:43.246Z,29.55
2019-04-29T17:35:05.075Z,29.75
2019-04-29T17:35:17.103Z,31.15
2019-04-29T17:37:32.216Z,30.03
2019-04-29T17:39:58.555Z,29.76
2019-04-29T17:42:26.683Z,29.79
2019-04-29T17:44:52.861Z,29.81
2019-04-29T17:47:37.841Z,29.72
2019-04-29T17:50:29.418Z,29.51
2019-04-29T17:52:47.222Z,29.25
2019-04-29T17:55:15.607Z,29.19
2019-04-29T17:57:43.686Z,29.48
2019-04-29T18:00:21.636Z,29.56
2019-04-29T18:02:57.284Z,29.38
2019-04-29T18:05:52.223Z,29.39
2019-04-29T18:08:05.247Z,28.64
2019-04-29T18:10:40.336Z,28.51
2019-04-29T18:13:06.735Z,28.74
2019-04-29T18:15:46.945Z,29.00
2019-04-29T18:18:07.271Z,28.58
2019-04-29T18:20:36.506Z,28.82
2019-04-29T18:23:11.063Z,28.58
2019-04-29T18:28:26.412Z,28.59
2019-04-29T18:30:54.465Z,28.65
2019-04-29T18:33:23.409Z,28.60
2019-04-29T18:35:48.983Z,28.10
2019-04-29T18:38:15.152Z,27.54
2019-04-29T18:40:42.257Z,27.66
2019-04-29T18:43:09.430Z,27.94
2019-04-29T18:45:36.809Z,28.00
2019-04-29T18:48:09.038Z,28.10
2019-04-29T18:50:34.227Z,28.07
2019-04-29T18:53:01.447Z,27.91
2019-04-29T18:55:28.186Z,27.79
2019-04-29T18:57:58.260Z,27.45
2019-04-29T19:00:22.723Z,27.29
2019-04-29T19:02:56.946Z,27.32
2019-04-29T19:05:18.978Z,27.08
2019-04-29T19:07:54.878Z,26.14
2019-04-29T19:10:17.893Z,26.11
2019-04-29T19:12:42.166Z,26.09
2019-04-29T19:15:11.774Z,26.50
2019-04-29T19:17:40.008Z,26.55
2019-04-29T19:20:08.655Z,27.05
2019-04-29T19:22:36.028Z,27.04
2019-04-29T19:25:03.044Z,26.40
2019-04-29T19:27:30.534Z,26.66
2019-04-29T19:29:59.151Z,26.89
2019-04-29T19:32:25.407Z,26.88
2019-04-29T19:34:54.932Z,26.95
2019-04-29T19:37:21.684Z,26.74
2019-04-29T19:39:47.839Z,25.97
2019-04-29T19:42:15.653Z,25.47
2019-04-29T19:44:42.223Z,25.25
2019-04-29T19:47:10.906Z,25.63
2019-04-29T19:49:40.205Z,25.93
2019-04-29T19:52:04.552Z,26.45
2019-04-29T19:54:30.701Z,26.12
2019-04-29T19:57:03.255Z,26.17
2019-04-29T19:59:26.122Z,26.35
2019-04-29T20:02:01.770Z,26.26
2019-04-29T20:04:39.510Z,26.40
2019-04-29T20:07:09.603Z,26.07
2019-04-29T20:09:37.227Z,25.33
2019-04-29T20:12:11.432Z,25.47
2019-04-29T20:14:33.745Z,25.47
2019-04-29T20:17:09.547Z,25.21
2019-04-29T20:19:30.695Z,25.72
2019-04-29T20:22:00.523Z,26.32
2019-04-29T20:24:26.378Z,26.34
2019-04-29T20:26:52.932Z,25.81
2019-04-29T20:29:19.808Z,25.89
2019-04-29T20:31:52.009Z,26.06
2019-04-29T20:34:20.119Z,26.14
2019-04-29T20:36:43.380Z,26.07
2019-04-29T20:39:15.320Z,26.19
2019-04-29T20:41:41.330Z,26.05
2019-04-29T20:44:09.189Z,26.06
2019-04-29T20:46:45.348Z,26.14
2019-04-29T20:49:05.696Z,26.20
2019-04-29T20:51:47.880Z,26.36
2019-04-29T20:54:04.478Z,25.88
2019-04-29T20:56:35.010Z,26.52
2019-04-29T20:59:02.085Z,26.11
2019-04-29T21:01:31.498Z,26.09
2019-04-29T21:03:58.021Z,25.70
2019-04-29T21:06:24.235Z,25.68
2019-04-29T21:08:51.230Z,26.27
2019-04-29T21:11:21.174Z,25.31
2019-04-29T21:13:56.007Z,25.40
2019-04-29T21:16:29.168Z,25.64
2019-04-29T21:18:54.264Z,26.07
2019-04-29T21:21:20.856Z,26.38
2019-04-29T21:23:48.247Z,26.50
2019-04-29T21:26:15.861Z,25.88
2019-04-29T21:28:44.629Z,25.92
2019-04-29T21:31:11.687Z,26.28
2019-04-29T21:33:38.548Z,26.27
2019-04-29T21:36:19.219Z,26.59
2019-04-29T21:39:00.935Z,26.75
2019-04-29T21:41:27.387Z,26.57
2019-04-29T21:43:54.700Z,26.39
2019-04-29T21:46:27.816Z,26.42
2019-04-29T21:48:49.109Z,26.45
2019-04-29T21:51:17.256Z,25.59
2019-04-29T21:53:43.449Z,25.30
2019-04-29T21:56:09.736Z,25.26
2019-04-29T21:58:36.521Z,25.44
2019-04-29T22:01:04.907Z,24.92
2019-04-29T22:03:31.377Z,24.64
2019-04-29T22:06:00.186Z,24.89
2019-04-29T22:08:29.796Z,24.78
2019-04-29T22:10:59.674Z,25.19
2019-04-29T22:13:22.216Z,24.66
2019-04-29T22:15:48.369Z,24.59
2019-04-29T22:18:17.420Z,24.72
2019-04-29T22:20:43.424Z,24.71
2019-04-29T22:23:13.234Z,24.11
2019-04-29T22:25:41.011Z,24.02
2019-04-29T22:28:06.264Z,24.00
2019-04-29T22:30:32.549Z,23.54
2019-04-29T22:32:59.948Z,23.08
2019-04-29T22:35:27.724Z,24.08
2019-04-29T22:37:55.505Z,24.53
2019-04-29T22:40:22.033Z,24.78
2019-04-29T22:43:04.821Z,25.82
2019-04-29T22:45:25.002Z,25.61
2019-04-29T22:47:54.367Z,24.28
2019-04-29T22:50:19.230Z,24.29
2019-04-29T22:52:45.438Z,23.89
2019-04-29T22:55:11.896Z,24.15
2019-04-29T22:57:38.052Z,24.45
2019-04-29T23:00:07.267Z,24.29
2019-04-29T23:02:33.433Z,24.59
2019-04-29T23:04:59.595Z,24.66
2019-04-29T23:07:25.894Z,24.88
2019-04-29T23:09:52.074Z,24.56
2019-04-29T23:12:18.757Z,24.79
2019-04-29T23:14:45.745Z,25.51
2019-04-29T23:17:13.355Z,25.11
2019-04-29T23:19:40.576Z,24.70
2019-04-29T23:22:21.947Z,24.93
2019-04-29T23:24:51.300Z,25.22
2019-04-29T23:27:19.608Z,25.23
2019-04-29T23:29:46.089Z,26.35
2019-04-29T23:32:12.348Z,26.19
2019-04-29T23:34:38.565Z,26.39
2019-04-29T23:37:04.736Z,26.37
2019-04-29T23:39:30.995Z,26.54
2019-04-29T23:41:57.211Z,25.81
2019-04-29T23:44:23.383Z,25.43
2019-04-29T23:46:49.561Z,25.79
2019-04-29T23:49:15.743Z,24.66
2019-04-29T23:51:41.923Z,24.73
2019-04-29T23:54:08.248Z,24.56
2019-04-29T23:56:42.831Z,23.37
2019-04-29T23:59:18.261Z,24.19
